createdAt,value
2022-09-11T00:01:27.226Z,12.07
2022-09-11T00:03:56.462Z,11.03
2022-09-11T00:06:30.089Z,12.00
2022-09-11T00:09:01.073Z,11.30
2022-09-11T00:11:31.135Z,12.57
2022-09-11T00:13:59.324Z,12.63
2022-09-11T00:16:28.927Z,13.00
2022-09-11T00:18:59.809Z,12.73
2022-09-11T00:21:29.439Z,12.47
2022-09-11T00:23:58.237Z,12.70
2022-09-11T00:26:26.743Z,12.37
2022-09-11T00:28:55.337Z,11.80
2022-09-11T00:31:25.490Z,11.23
2022-09-11T00:33:53.995Z,12.27
2022-09-11T00:36:24.401Z,12.20
2022-09-11T00:38:53.874Z,12.00
2022-09-11T00:41:24.275Z,11.27
2022-09-11T00:44:00.252Z,11.13
2022-09-11T00:46:37.250Z,10.97
2022-09-11T00:49:15.946Z,11.93
2022-09-11T00:51:47.850Z,11.87
2022-09-11T00:54:23.086Z,12.30
2022-09-11T00:56:51.628Z,11.03
2022-09-11T00:59:25.198Z,11.63
2022-09-11T01:01:53.443Z,10.47
2022-09-11T01:04:23.129Z,10.30
2022-09-11T01:06:52.764Z,10.77
2022-09-11T01:09:22.497Z,11.60
2022-09-11T01:12:01.033Z,11.33
2022-09-11T01:14:39.523Z,12.77
2022-09-11T01:17:18.138Z,12.27
2022-09-11T01:20:14.242Z,11.77
2022-09-11T01:22:59.127Z,11.57
2022-09-11T01:25:37.744Z,12.23
2022-09-11T01:28:12.008Z,12.00
2022-09-11T01:30:46.575Z,13.13
2022-09-11T01:33:20.048Z,12.10
2022-09-11T01:35:56.359Z,12.80
2022-09-11T01:38:31.657Z,12.87
2022-09-11T01:41:05.648Z,13.30
2022-09-11T01:43:38.811Z,11.97
2022-09-11T01:46:11.149Z,12.50
2022-09-11T01:48:44.717Z,11.93
2022-09-11T01:51:16.481Z,13.00
2022-09-11T01:53:50.368Z,13.47
2022-09-11T01:56:22.707Z,13.70
2022-09-11T01:58:59.595Z,11.70
2022-09-11T02:01:31.858Z,13.47
2022-09-11T02:04:10.580Z,11.93
2022-09-11T02:06:46.938Z,13.43
2022-09-11T02:09:22.826Z,12.33
2022-09-11T02:11:55.059Z,12.90
2022-09-11T02:14:30.511Z,11.70
2022-09-11T02:17:05.175Z,13.20
2022-09-11T02:19:33.621Z,13.23
2022-09-11T02:22:02.005Z,13.67
2022-09-11T02:24:30.106Z,12.60
2022-09-11T02:27:02.092Z,13.83
2022-09-11T02:29:33.562Z,15.23
2022-09-11T02:32:03.678Z,14.67
2022-09-11T02:34:35.403Z,15.53
2022-09-11T02:37:16.781Z,14.90
2022-09-11T02:40:05.819Z,16.20
2022-09-11T02:42:49.053Z,15.53
2022-09-11T02:45:30.469Z,15.53
2022-09-11T02:48:16.543Z,15.33
2022-09-11T02:50:54.108Z,15.43
2022-09-11T02:53:29.060Z,14.30
2022-09-11T02:56:04.439Z,17.57
2022-09-11T02:58:40.088Z,15.50
2022-09-11T03:01:10.813Z,19.47
2022-09-11T03:03:41.937Z,18.30
2022-09-11T03:06:14.963Z,16.17
2022-09-11T03:08:42.878Z,22.13
2022-09-11T03:11:11.063Z,19.47
2022-09-11T03:13:39.587Z,19.37
2022-09-11T03:16:12.419Z,17.90
2022-09-11T03:18:40.565Z,19.03
2022-09-11T03:21:11.386Z,24.03
2022-09-11T03:23:39.603Z,24.70
2022-09-11T03:26:07.505Z,23.70
2022-09-11T03:28:35.749Z,24.87
2022-09-11T03:31:09.895Z,28.00
2022-09-11T03:33:40.079Z,24.23
2022-09-11T03:36:11.694Z,27.30
2022-09-11T03:38:40.207Z,26.07
2022-09-11T03:41:09.514Z,27.20
2022-09-11T03:43:37.711Z,24.73
2022-09-11T03:46:06.990Z,25.00
2022-09-11T03:48:36.509Z,26.90
2022-09-11T03:51:06.605Z,27.03
2022-09-11T03:53:35.525Z,27.93
2022-09-11T03:56:06.430Z,25.43
2022-09-11T03:58:40.784Z,29.80
2022-09-11T04:01:12.228Z,30.57
2022-09-11T04:03:40.998Z,31.40
2022-09-11T04:06:14.025Z,31.03
2022-09-11T04:08:42.250Z,30.67
2022-09-11T04:11:12.673Z,25.70
2022-09-11T04:13:43.793Z,32.93
2022-09-11T04:16:17.035Z,32.23
2022-09-11T04:18:49.399Z,29.57
2022-09-11T04:21:19.542Z,30.77
2022-09-11T04:23:53.401Z,30.60
2022-09-11T04:26:24.217Z,30.03
2022-09-11T04:28:57.170Z,36.77
2022-09-11T04:31:26.251Z,34.50
2022-09-11T04:33:57.743Z,33.13
2022-09-11T04:36:30.664Z,33.67
2022-09-11T04:39:00.209Z,34.40
2022-09-11T04:41:29.076Z,32.90
2022-09-11T04:44:04.857Z,31.77
2022-09-11T04:46:34.615Z,35.67
2022-09-11T04:49:04.095Z,36.50
2022-09-11T04:51:36.611Z,37.87
2022-09-11T04:54:06.133Z,38.17
2022-09-11T04:56:38.961Z,35.17
2022-09-11T04:59:13.168Z,35.70
2022-09-11T05:01:44.313Z,36.03
2022-09-11T05:04:13.839Z,36.37
2022-09-11T05:06:48.289Z,32.93
2022-09-11T05:09:19.281Z,34.53
2022-09-11T05:11:49.070Z,35.50
2022-09-11T05:14:18.396Z,37.20
2022-09-11T05:16:48.591Z,36.67
2022-09-11T05:19:20.660Z,39.70
2022-09-11T05:21:51.091Z,41.07
2022-09-11T05:24:19.978Z,37.67
2022-09-11T05:26:48.122Z,40.40
2022-09-11T05:29:17.506Z,38.37
2022-09-11T05:31:55.757Z,36.77
2022-09-11T05:34:24.727Z,43.00
2022-09-11T05:36:54.180Z,43.33
2022-09-11T05:39:22.341Z,45.50
2022-09-11T05:41:51.450Z,48.00
2022-09-11T05:44:19.696Z,45.13
2022-09-11T05:46:48.416Z,47.70
2022-09-11T05:49:16.864Z,44.20
2022-09-11T05:51:44.764Z,48.10
2022-09-11T05:54:14.066Z,47.37
2022-09-11T05:56:42.501Z,45.30
2022-09-11T05:59:17.447Z,44.43
2022-09-11T06:01:50.317Z,49.93
2022-09-11T06:04:28.062Z,49.73
2022-09-11T06:06:58.496Z,49.83
2022-09-11T06:09:29.795Z,53.17
2022-09-11T06:11:57.986Z,49.37
2022-09-11T06:14:26.034Z,48.53
2022-09-11T06:16:54.224Z,49.27
2022-09-11T06:19:22.240Z,53.43
2022-09-11T06:21:50.992Z,50.20
2022-09-11T06:24:25.813Z,53.73
2022-09-11T06:26:55.167Z,54.33
2022-09-11T06:29:23.850Z,57.87
2022-09-11T06:31:52.988Z,53.37
2022-09-11T06:34:24.497Z,56.63
2022-09-11T06:36:53.434Z,53.00
2022-09-11T06:39:23.377Z,51.00
2022-09-11T06:41:53.234Z,54.93
2022-09-11T06:44:29.842Z,57.27
2022-09-11T06:47:00.825Z,58.13
2022-09-11T06:49:29.156Z,57.33
2022-09-11T06:52:15.921Z,54.20
2022-09-11T06:54:53.135Z,52.53
2022-09-11T06:57:22.422Z,54.13
2022-09-11T06:59:52.172Z,53.57
2022-09-11T07:02:21.211Z,52.80
2022-09-11T07:04:49.388Z,52.03
2022-09-11T07:07:19.199Z,54.27
2022-09-11T07:09:47.170Z,53.77
2022-09-11T07:12:15.415Z,51.23
2022-09-11T07:14:43.750Z,52.63
2022-09-11T07:17:18.893Z,50.00
2022-09-11T07:19:50.152Z,46.97
2022-09-11T07:22:19.784Z,47.83
2022-09-11T07:24:49.702Z,50.93
2022-09-11T07:27:19.434Z,50.90
2022-09-11T07:29:49.014Z,50.30
2022-09-11T07:32:18.272Z,53.33
2022-09-11T07:34:47.664Z,54.60
2022-09-11T07:37:16.189Z,55.57
2022-09-11T07:39:44.245Z,58.50
2022-09-11T07:42:19.309Z,58.63
2022-09-11T07:44:48.131Z,56.47
2022-09-11T07:47:18.219Z,55.57
2022-09-11T07:49:50.554Z,53.67
2022-09-11T07:52:20.696Z,46.00
2022-09-11T07:54:55.344Z,50.50
2022-09-11T07:57:27.457Z,58.27
2022-09-11T07:59:56.045Z,53.90
2022-09-11T08:02:25.706Z,53.17
2022-09-11T08:04:55.108Z,55.40
2022-09-11T08:07:24.139Z,52.20
2022-09-11T08:10:10.199Z,52.50
2022-09-11T08:12:41.952Z,53.73
2022-09-11T08:15:10.514Z,53.23
2022-09-11T08:17:40.051Z,51.53
2022-09-11T08:20:09.454Z,57.30
2022-09-11T08:22:37.803Z,57.33
2022-09-11T08:25:07.224Z,60.80
2022-09-11T08:27:35.894Z,54.77
2022-09-11T08:30:04.253Z,62.33
2022-09-11T08:32:33.309Z,59.70
2022-09-11T08:35:03.999Z,55.77
2022-09-11T08:37:32.120Z,56.23
2022-09-11T08:40:00.887Z,54.03
2022-09-11T08:42:30.945Z,56.00
2022-09-11T08:45:01.095Z,56.20
2022-09-11T08:47:42.784Z,50.97
2022-09-11T08:50:20.371Z,52.73
2022-09-11T08:52:51.240Z,43.73
2022-09-11T08:55:32.139Z,44.63
2022-09-11T08:58:12.441Z,43.37
2022-09-11T09:00:46.435Z,40.47
2022-09-11T09:03:39.700Z,39.63
2022-09-11T09:06:29.212Z,37.80
2022-09-11T09:09:09.443Z,39.13
2022-09-11T09:11:43.271Z,38.83
2022-09-11T09:14:45.141Z,38.17
2022-09-11T09:17:20.192Z,38.37
2022-09-11T09:19:56.851Z,41.83
2022-09-11T09:22:34.959Z,44.37
2022-09-11T09:25:10.738Z,45.37
2022-09-11T09:27:45.605Z,49.67
2022-09-11T09:30:18.021Z,45.07
2022-09-11T09:32:53.562Z,46.50
2022-09-11T09:35:25.253Z,41.87
2022-09-11T09:37:56.389Z,43.03
2022-09-11T09:40:26.881Z,39.47
2022-09-11T09:43:19.972Z,42.93
2022-09-11T09:46:11.476Z,40.50
2022-09-11T09:48:41.273Z,41.33
2022-09-11T09:51:14.258Z,41.73
2022-09-11T09:53:49.052Z,37.73
2022-09-11T09:56:20.355Z,41.67
2022-09-11T09:58:56.507Z,43.47
2022-09-11T10:01:44.066Z,45.50
2022-09-11T10:04:16.623Z,42.97
2022-09-11T10:06:46.894Z,42.60
2022-09-11T10:09:28.749Z,44.40
2022-09-11T10:12:02.716Z,37.57
2022-09-11T10:14:51.067Z,40.03
2022-09-11T10:17:33.823Z,42.30
2022-09-11T10:20:22.045Z,42.57
2022-09-11T10:22:50.970Z,39.57
2022-09-11T10:25:23.793Z,42.47
2022-09-11T10:28:03.519Z,41.20
2022-09-11T10:30:36.159Z,40.37
2022-09-11T10:33:08.389Z,41.33
2022-09-11T10:35:37.785Z,36.87
2022-09-11T10:38:26.404Z,37.33
2022-09-11T10:41:07.901Z,34.00
2022-09-11T10:43:42.499Z,39.17
2022-09-11T10:46:25.726Z,38.47
2022-09-11T10:48:55.795Z,36.77
2022-09-11T10:51:24.748Z,37.90
2022-09-11T10:54:07.667Z,35.60
2022-09-11T10:56:44.090Z,34.83
2022-09-11T10:59:18.362Z,33.03
2022-09-11T11:01:46.874Z,34.57
2022-09-11T11:04:15.294Z,32.03
2022-09-11T11:06:59.544Z,31.23
2022-09-11T11:46:38.545Z,31.37
2022-09-11T11:54:37.086Z,25.97
2022-09-11T11:57:15.462Z,24.97
2022-09-11T12:00:11.582Z,24.30
2022-09-11T12:03:03.888Z,23.40
2022-09-11T12:05:41.995Z,20.87
2022-09-11T12:08:19.069Z,20.20
2022-09-11T12:24:33.221Z,15.70
2022-09-11T12:27:50.198Z,17.87
2022-09-11T12:30:27.803Z,15.70
2022-09-11T12:33:24.805Z,19.43
2022-09-11T12:35:58.412Z,19.50
2022-09-11T12:38:39.749Z,17.27
2022-09-11T12:41:17.660Z,16.27
2022-09-11T12:43:57.635Z,14.87
2022-09-11T12:47:54.620Z,15.53
2022-09-11T12:50:30.143Z,16.87
2022-09-11T12:53:02.516Z,21.90
2022-09-11T12:55:43.429Z,22.67
2022-09-11T12:58:38.774Z,26.13
2022-09-11T13:01:24.526Z,23.87
2022-09-11T13:44:15.185Z,21.37
2022-09-11T13:59:18.852Z,15.27
2022-09-11T14:02:45.741Z,13.13
2022-09-11T14:08:46.468Z,10.03
2022-09-11T14:11:44.510Z,12.40
2022-09-11T14:14:34.277Z,12.10
2022-09-11T14:17:13.940Z,13.50
2022-09-11T14:19:50.422Z,13.70
2022-09-11T14:22:25.884Z,14.80
2022-09-11T14:25:00.657Z,13.90
2022-09-11T14:27:44.440Z,15.03
2022-09-11T14:30:39.349Z,14.30
2022-09-11T14:33:40.569Z,15.17
2022-09-11T14:36:19.427Z,14.27
2022-09-11T14:38:49.010Z,12.53
2022-09-11T14:41:20.874Z,14.13
2022-09-11T14:43:53.435Z,11.47
2022-09-11T14:46:23.920Z,13.00
2022-09-11T14:48:55.380Z,13.70
2022-09-11T14:51:46.219Z,12.17
2022-09-11T14:54:17.675Z,11.63
2022-09-11T14:56:53.829Z,10.20
2022-09-11T14:59:23.696Z,12.90
2022-09-11T15:01:55.304Z,12.37
2022-09-11T15:10:04.713Z,13.93
2022-09-11T15:16:04.887Z,10.30
2022-09-11T15:18:43.353Z,11.90
2022-09-11T15:21:14.594Z,12.17
2022-09-11T15:24:02.814Z,11.80
2022-09-11T15:27:22.919Z,11.30
2022-09-11T15:30:00.107Z,11.83
2022-09-11T15:32:51.440Z,10.60
2022-09-11T15:44:41.801Z,8.20
2022-09-11T15:47:19.975Z,10.00
2022-09-11T15:49:50.292Z,11.10
2022-09-11T15:52:39.243Z,8.23
2022-09-11T15:55:17.445Z,11.13
2022-09-11T15:57:46.263Z,8.93
2022-09-11T16:00:17.372Z,11.40
2022-09-11T16:02:48.518Z,10.77
2022-09-11T16:05:23.452Z,11.30
2022-09-11T16:11:48.094Z,12.60
2022-09-11T16:14:59.865Z,10.83
2022-09-11T16:22:41.125Z,11.23
2022-09-11T16:25:32.604Z,10.07
2022-09-11T16:28:09.136Z,10.33
2022-09-11T16:30:46.573Z,9.93
2022-09-11T16:37:52.768Z,9.17
2022-09-11T16:41:48.787Z,8.37
2022-09-11T17:14:37.094Z,8.07
2022-09-11T17:17:07.159Z,8.23
2022-09-11T17:19:35.951Z,8.27
2022-09-11T17:22:04.500Z,8.23
2022-09-11T17:24:34.748Z,8.23
2022-09-11T17:27:02.873Z,8.30
2022-09-11T17:29:30.892Z,8.50
2022-09-11T17:32:26.156Z,8.83
2022-09-11T17:34:48.683Z,8.10
2022-09-11T17:37:17.311Z,8.70
2022-09-11T17:39:45.829Z,8.40
2022-09-11T17:42:14.190Z,9.27
2022-09-11T17:44:42.812Z,8.57
2022-09-11T17:47:12.381Z,8.47
2022-09-11T17:49:40.594Z,8.50
2022-09-11T17:52:08.476Z,7.83
2022-09-11T17:54:36.501Z,7.30
2022-09-11T17:57:04.995Z,7.53
2022-09-11T17:59:33.049Z,8.73
2022-09-11T18:02:04.837Z,8.63
2022-09-11T18:04:34.560Z,8.97
2022-09-11T18:07:04.341Z,8.50
2022-09-11T18:09:32.513Z,9.07
2022-09-11T18:12:03.574Z,8.53
2022-09-11T18:14:32.418Z,9.17
2022-09-11T18:17:00.576Z,8.20
2022-09-11T18:19:29.143Z,8.43
2022-09-11T18:21:59.854Z,9.10
2022-09-11T18:24:29.920Z,8.87
2022-09-11T18:27:00.907Z,8.27
2022-09-11T18:29:30.706Z,8.37
2022-09-11T18:32:00.216Z,9.10
2022-09-11T18:34:29.624Z,8.83
2022-09-11T18:37:00.101Z,8.30
2022-09-11T18:39:28.255Z,8.67
2022-09-11T18:41:57.276Z,9.57
2022-09-11T18:44:25.898Z,9.47
2022-09-11T18:46:55.811Z,9.83
2022-09-11T18:49:24.473Z,9.20
2022-09-11T18:51:53.722Z,9.50
2022-09-11T18:54:23.700Z,9.00
2022-09-11T18:56:52.077Z,8.70
2022-09-11T18:59:20.441Z,9.43
2022-09-11T19:01:48.742Z,9.40
2022-09-11T19:04:17.376Z,9.40
2022-09-11T19:06:46.315Z,10.23
2022-09-11T19:09:14.914Z,9.60
2022-09-11T19:11:45.502Z,10.00
2022-09-11T19:14:14.191Z,9.13
2022-09-11T19:16:42.526Z,10.00
2022-09-11T19:19:10.876Z,10.20
2022-09-11T19:21:39.938Z,9.87
2022-09-11T19:24:08.605Z,9.43
2022-09-11T19:26:39.205Z,9.70
2022-09-11T19:29:09.691Z,9.87
2022-09-11T19:31:39.440Z,10.10
2022-09-11T19:34:08.693Z,10.20
2022-09-11T19:36:37.143Z,9.23
2022-09-11T19:39:06.678Z,10.80
2022-09-11T19:41:37.422Z,10.53
2022-09-11T19:44:09.385Z,11.30
2022-09-11T19:46:38.130Z,11.37
2022-09-11T19:49:08.070Z,11.23
2022-09-11T19:51:37.581Z,12.07
2022-09-11T19:54:06.513Z,10.97
2022-09-11T19:56:38.299Z,10.60
2022-09-11T19:59:11.315Z,12.17
2022-09-11T20:01:39.714Z,12.80
2022-09-11T20:04:11.508Z,11.23
2022-09-11T20:09:30.567Z,11.13
2022-09-11T20:12:00.833Z,11.37
2022-09-11T20:14:31.296Z,12.40
2022-09-11T20:17:05.874Z,11.57
2022-09-11T20:19:34.086Z,12.93
2022-09-11T20:22:02.148Z,13.10
2022-09-11T20:24:30.245Z,12.90
2022-09-11T20:27:00.379Z,12.43
2022-09-11T20:29:30.305Z,12.30
2022-09-11T20:32:00.452Z,13.47
2022-09-11T20:34:28.769Z,13.17
2022-09-11T20:37:00.710Z,14.80
2022-09-11T20:39:29.115Z,14.77
2022-09-11T20:41:57.299Z,14.60
2022-09-11T20:44:26.641Z,13.57
2022-09-11T20:46:56.246Z,13.20
2022-09-11T20:49:24.235Z,13.37
2022-09-11T20:51:52.135Z,15.20
2022-09-11T20:54:20.035Z,14.90
2022-09-11T20:56:47.947Z,15.73
2022-09-11T20:59:16.142Z,15.03
2022-09-11T21:01:44.335Z,13.53
2022-09-11T21:04:13.944Z,15.63
2022-09-11T21:06:41.923Z,16.03
2022-09-11T21:09:12.710Z,16.67
2022-09-11T21:11:42.224Z,16.47
2022-09-11T21:14:11.508Z,14.97
2022-09-11T21:16:39.613Z,15.10
2022-09-11T21:19:08.053Z,16.77
2022-09-11T21:21:40.141Z,15.43
2022-09-11T21:24:12.563Z,15.73
2022-09-11T21:26:41.213Z,16.63
2022-09-11T21:29:13.038Z,14.97
2022-09-11T21:31:41.193Z,15.77
2022-09-11T21:34:10.163Z,15.77
2022-09-11T21:36:39.661Z,15.63
2022-09-11T21:39:07.979Z,15.43
2022-09-11T21:41:35.970Z,15.60
2022-09-11T21:44:04.597Z,16.37
2022-09-11T21:46:32.883Z,15.37
2022-09-11T21:49:01.732Z,15.00
2022-09-11T21:51:29.879Z,16.93
2022-09-11T21:54:01.653Z,15.67
2022-09-11T21:56:32.071Z,15.07
2022-09-11T21:59:01.847Z,17.00
2022-09-11T22:01:31.907Z,16.80
2022-09-11T22:04:03.568Z,16.97
2022-09-11T22:06:32.328Z,16.47
2022-09-11T22:09:01.710Z,17.33
2022-09-11T22:11:29.670Z,16.77
2022-09-11T22:13:57.684Z,17.90
2022-09-11T22:16:25.767Z,17.33
2022-09-11T22:18:55.481Z,18.90
2022-09-11T22:21:24.762Z,18.77
2022-09-11T22:23:52.658Z,18.17
2022-09-11T22:26:23.897Z,17.70
2022-09-11T22:28:52.030Z,17.63
2022-09-11T22:31:21.841Z,18.50
2022-09-11T22:33:49.911Z,16.50
2022-09-11T22:36:20.443Z,18.87
2022-09-11T22:38:48.999Z,17.77
2022-09-11T22:41:17.586Z,18.93
2022-09-11T22:43:48.838Z,18.07
2022-09-11T22:46:17.386Z,17.80
2022-09-11T22:48:45.418Z,17.87
2022-09-11T22:51:13.700Z,18.73
2022-09-11T22:53:41.846Z,18.87
2022-09-11T22:56:10.377Z,18.87
2022-09-11T22:58:39.335Z,17.77
2022-09-11T23:01:11.143Z,18.17
2022-09-11T23:03:39.432Z,18.20
2022-09-11T23:06:25.156Z,18.47
2022-09-11T23:08:53.525Z,19.93
2022-09-11T23:11:22.021Z,16.57
2022-09-11T23:13:50.795Z,17.27
2022-09-11T23:16:22.727Z,21.33
2022-09-11T23:18:54.864Z,20.10
2022-09-11T23:21:22.909Z,21.03
2022-09-11T23:23:54.333Z,19.53
2022-09-11T23:26:23.794Z,19.67
2022-09-11T23:28:51.847Z,19.57
2022-09-11T23:31:25.185Z,19.47
2022-09-11T23:33:55.419Z,20.10
2022-09-11T23:36:24.207Z,19.60
2022-09-11T23:38:52.373Z,19.17
2022-09-11T23:41:20.648Z,18.87
2022-09-11T23:43:49.549Z,20.37
2022-09-11T23:46:18.161Z,18.57
2022-09-11T23:48:47.585Z,20.03
2022-09-11T23:51:15.892Z,19.20
2022-09-11T23:53:47.545Z,19.07
2022-09-11T23:56:16.218Z,19.77
2022-09-11T23:58:45.630Z,20.80
